Mostly Cloudy Current Weather (METAR) For Innsbruck - Kranebitten Airport

All times on the weather descriptions are local

Observed at 13:20 - (11 mins ago)

Mostly Cloudy

14°C

Mostly Cloudy
Clouds: Few Clouds at 1,200ft, Scattered Clouds at 4,000ft, Broken Clouds at 6,500ft
Wind: 050° at 04 knots
Visibility: Greater than 10km
QNH: 1021
Dew Point: 10°C
Runway in Use: Likely Runway 08

Sunrise Today: 06:34
Sunset Today: 19:54

Forecast Weather (TAF) For Innsbruck - Kranebitten Airport

Issued at 02:00 - (28 days ago)


Runway in Use: Unable to determine, wind is clam

Forecast valid until 02:00 on Tuesday

METAR/TAF RAW METAR / TAF

LOWI 021120Z 05004KT 9999 FEW012 SCT040 BKN065 14/10 Q1021 NOSIG

Weather Widget

Put weather from any of our airports on your website with our weather widget.

Find Another Search

Airport Search


Please Wait Please Wait - Loading
Close
Close

Login

Username:

Password:

Remember Me:

Remember me on this computer

Forgotten your password? Get a reset password sent to your registered e-mail address

Close

User Private Message

Subject:

Message: